Time;durP1;ratioP1;P1;durP2;ratioP2;P2;SDS_P1;SDS_P2;PMS_P1;PMS_P2;Temp;Humidity;BMP_temperature;BMP_pressure;BME280_temperature;BME280_humidity;BME280_pressure;Samples;Min_cycle;Max_cycle;Signal;HPM_P1;HPM_P2
2021/11/29 00:00:22;;;;;;;1.58;0.28;;;;;;;1.90;94.18;99907.84;2105893;28;20693;-62
2021/11/29 00:01:30;;;;;;;0.90;0.20;;;;;;;1.91;94.32;99914.88;2105217;28;22863;-63
2021/11/29 00:02:32;;;;;;;3.50;0.30;;;;;;;1.91;94.61;99911.38;2104938;28;30689;-63
2021/11/29 00:03:34;;;;;;;1.55;0.20;;;;;;;1.94;94.59;99915.72;2105956;28;20036;-63
2021/11/29 00:04:36;;;;;;;1.48;0.20;;;;;;;1.93;93.99;99919.28;2113847;28;22270;-63
2021/11/29 00:05:39;;;;;;;1.85;0.35;;;;;;;1.93;93.95;99914.88;2114738;28;20154;-63
2021/11/29 00:06:43;;;;;;;1.98;0.30;;;;;;;1.94;93.98;99916.63;2114012;28;32908;-63
2021/11/29 00:07:45;;;;;;;2.72;0.22;;;;;;;1.94;94.58;99916.63;2113811;28;26400;-62
2021/11/29 00:08:48;;;;;;;5.07;0.40;;;;;;;1.93;94.61;99914.88;2114295;28;24334;-62
2021/11/29 00:09:50;;;;;;;2.35;0.35;;;;;;;1.96;94.09;99919.28;2114402;28;22455;-63
2021/11/29 00:10:52;;;;;;;4.57;0.30;;;;;;;1.96;94.24;99924.56;2114663;27;20898;-63
2021/11/29 00:11:54;;;;;;;1.33;0.20;;;;;;;1.97;93.79;99928.94;2114297;28;22414;-62
2021/11/29 00:12:57;;;;;;;2.50;0.30;;;;;;;1.97;94.34;99921.88;2114418;28;20795;-63
2021/11/29 00:13:59;;;;;;;4.38;0.28;;;;;;;1.98;94.47;99915.72;2114507;28;20071;-63
2021/11/29 00:15:01;;;;;;;3.05;0.25;;;;;;;1.97;93.89;99916.59;2114064;28;32572;-63
2021/11/29 00:16:03;;;;;;;1.90;0.30;;;;;;;1.99;93.75;99919.25;2114110;28;22358;-63
2021/11/29 00:17:05;;;;;;;6.03;0.30;;;;;;;2.00;93.73;99921.00;2113992;28;20256;-63
2021/11/29 00:18:09;;;;;;;6.13;0.50;;;;;;;2.00;93.86;99928.94;2112967;28;27998;-63
2021/11/29 00:19:11;;;;;;;2.40;0.30;;;;;;;2.01;93.63;99928.03;2114706;28;20197;-63
2021/11/29 00:20:14;;;;;;;5.78;0.30;;;;;;;2.00;93.85;99924.50;2104979;28;25886;-63
2021/11/29 00:21:18;;;;;;;2.63;0.20;;;;;;;2.01;94.38;99921.00;2105692;28;27148;-62
2021/11/29 00:22:20;;;;;;;1.65;0.30;;;;;;;2.04;94.28;99930.66;2114189;28;20173;-63
2021/11/29 00:23:23;;;;;;;5.60;0.30;;;;;;;2.03;94.27;99923.66;2114159;28;30117;-62
2021/11/29 00:24:25;;;;;;;2.63;0.20;;;;;;;2.04;93.61;99925.38;2114313;28;22852;-63
2021/11/29 00:25:26;;;;;;;2.83;0.30;;;;;;;2.04;93.97;99928.03;2114690;28;20074;-63
2021/11/29 00:26:28;;;;;;;1.77;0.10;;;;;;;2.05;93.95;99929.78;2113425;28;29250;-63
2021/11/29 00:27:30;;;;;;;1.38;0.20;;;;;;;2.05;93.84;99930.66;2105395;28;20121;-63
2021/11/29 00:28:32;;;;;;;3.15;0.30;;;;;;;2.06;94.26;99931.53;2105613;28;20159;-63
2021/11/29 00:29:34;;;;;;;3.15;0.20;;;;;;;2.07;93.78;99925.38;2114221;28;27138;-63
2021/11/29 00:30:38;;;;;;;2.75;0.38;;;;;;;2.07;93.81;99920.09;2114106;28;25915;-63
2021/11/29 00:31:40;;;;;;;3.50;0.30;;;;;;;2.07;94.18;99928.00;2114119;28;29437;-63
2021/11/29 00:32:43;;;;;;;3.85;0.20;;;;;;;2.07;94.41;99920.09;2114097;28;22934;-63
2021/11/29 00:33:45;;;;;;;2.70;0.30;;;;;;;2.09;94.24;99923.59;2114943;28;20121;-62
2021/11/29 00:34:49;;;;;;;3.80;0.40;;;;;;;2.08;94.07;99930.66;2114238;28;20568;-62
2021/11/29 00:35:51;;;;;;;3.15;0.40;;;;;;;2.09;93.74;99931.53;2114313;28;23241;-63
2021/11/29 00:36:55;;;;;;;3.00;0.45;;;;;;;2.08;93.64;99929.75;2114128;28;25264;-63
2021/11/29 00:38:00;;;;;;;4.43;0.22;;;;;;;2.09;93.85;99931.53;2113920;28;28149;-63
2021/11/29 00:39:03;;;;;;;1.42;0.30;;;;;;;2.11;94.00;99932.38;2113922;27;20082;-63
2021/11/29 00:40:09;;;;;;;2.92;0.40;;;;;;;2.10;93.97;99934.16;2113426;28;23894;-63
2021/11/29 00:41:11;;;;;;;2.55;0.43;;;;;;;2.12;94.10;99926.22;2114327;28;23170;-62
2021/11/29 00:42:13;;;;;;;2.58;0.40;;;;;;;2.11;94.53;99932.38;2113553;28;25867;-62
2021/11/29 00:43:18;;;;;;;2.30;0.40;;;;;;;2.13;93.99;99930.63;2114396;28;20044;-62
2021/11/29 00:44:20;;;;;;;1.58;0.52;;;;;;;2.12;93.92;99930.63;2114053;28;20036;-63
2021/11/29 00:45:22;;;;;;;3.15;0.57;;;;;;;2.13;94.36;99927.09;2114033;28;27348;-63
2021/11/29 00:46:24;;;;;;;2.95;0.20;;;;;;;2.14;94.49;99935.03;2114238;28;20032;-63
2021/11/29 00:47:28;;;;;;;2.20;0.60;;;;;;;2.13;94.02;99940.31;2113138;27;32716;-62
2021/11/29 00:48:30;;;;;;;4.63;0.55;;;;;;;2.13;93.84;99938.53;2113664;28;33809;-62
2021/11/29 00:49:32;;;;;;;5.22;0.60;;;;;;;2.14;94.27;99931.50;2113745;28;32654;-63
2021/11/29 00:50:38;;;;;;;2.83;0.47;;;;;;;2.12;93.70;99944.72;2113757;28;31728;-63
2021/11/29 00:51:40;;;;;;;4.45;0.40;;;;;;;2.14;94.27;99939.44;2114162;28;25001;-62
2021/11/29 00:52:42;;;;;;;1.60;0.40;;;;;;;2.15;94.33;99939.41;2104927;28;26189;-63
2021/11/29 00:53:46;;;;;;;4.53;0.45;;;;;;;2.15;94.37;99942.03;2105538;28;20113;-63
2021/11/29 00:54:48;;;;;;;3.58;0.32;;;;;;;2.15;94.47;99939.41;2113985;28;28157;-63
2021/11/29 00:55:50;;;;;;;3.33;0.50;;;;;;;2.15;93.70;99944.69;2113783;28;20912;-62
2021/11/29 00:56:52;;;;;;;2.70;0.60;;;;;;;2.15;94.41;99942.03;2114054;28;20040;-64
2021/11/29 00:57:54;;;;;;;3.60;0.47;;;;;;;2.14;94.14;99945.59;2113794;28;25992;-63
2021/11/29 00:58:55;;;;;;;2.90;0.47;;;;;;;2.16;94.02;99949.09;2113991;28;23529;-63
2021/11/29 00:59:57;;;;;;;2.60;0.70;;;;;;;2.15;94.16;99944.69;2114040;28;20476;-63
2021/11/29 01:00:59;;;;;;;4.72;0.40;;;;;;;2.16;94.38;99943.81;2114672;28;25932;-65
2021/11/29 01:02:01;;;;;;;1.75;0.40;;;;;;;2.17;94.07;99949.97;2113196;27;22318;-63
2021/11/29 01:03:03;;;;;;;4.57;0.50;;;;;;;2.16;94.03;99951.72;2114011;28;30530;-63
2021/11/29 01:04:05;;;;;;;6.35;0.50;;;;;;;2.16;93.85;99956.16;2113307;28;20032;-63
2021/11/29 01:05:09;;;;;;;3.13;0.20;;;;;;;2.15;94.63;99955.25;2113286;28;25735;-63
2021/11/29 01:06:15;;;;;;;4.80;0.40;;;;;;;2.15;94.49;99957.88;2113555;28;20901;-63
2021/11/29 01:07:17;;;;;;;4.10;0.52;;;;;;;2.15;94.31;99957.00;2114338;27;20048;-64
2021/11/29 01:08:19;;;;;;;2.90;0.20;;;;;;;2.13;94.07;99961.44;2113636;28;29517;-63
2021/11/29 01:09:21;;;;;;;4.72;0.30;;;;;;;2.12;94.16;99963.19;2113669;28;26783;-63
2021/11/29 01:10:27;;;;;;;5.57;0.50;;;;;;;2.11;94.58;99958.78;2114381;28;21040;-63
2021/11/29 01:11:29;;;;;;;3.75;0.40;;;;;;;2.10;94.73;99965.84;2113924;28;32017;-64
2021/11/29 01:12:31;;;;;;;3.28;0.50;;;;;;;2.12;94.34;99963.19;2103858;28;29865;-63
2021/11/29 01:13:33;;;;;;;4.00;0.30;;;;;;;2.12;94.17;99963.19;2105561;28;20892;-63
2021/11/29 01:14:35;;;;;;;6.05;0.45;;;;;;;2.12;94.20;99968.47;2113712;28;29993;-63
2021/11/29 01:15:38;;;;;;;2.75;0.50;;;;;;;2.13;94.39;99964.94;2113992;27;27282;-63
2021/11/29 01:16:40;;;;;;;3.20;0.45;;;;;;;2.12;94.40;99968.47;2115732;28;20080;-63
2021/11/29 01:17:43;;;;;;;3.60;0.40;;;;;;;2.13;94.85;99964.94;2115565;28;22906;-63
2021/11/29 01:18:45;;;;;;;3.35;0.40;;;;;;;2.13;94.62;99975.50;2115013;28;24856;-63
2021/11/29 01:19:49;;;;;;;2.47;0.30;;;;;;;2.15;94.38;99972.84;2106640;28;20155;-63
2021/11/29 01:20:51;;;;;;;3.22;0.30;;;;;;;2.15;94.46;99979.00;2107129;28;20045;-63
2021/11/29 01:21:53;;;;;;;2.80;0.20;;;;;;;2.16;94.31;99980.78;2115503;28;22886;-63
2021/11/29 01:22:55;;;;;;;3.05;0.20;;;;;;;2.17;94.69;99979.91;2115712;28;20043;-64
2021/11/29 01:23:58;;;;;;;6.18;0.30;;;;;;;2.18;94.47;99983.41;2115306;28;25004;-63
2021/11/29 01:25:00;;;;;;;4.93;0.57;;;;;;;2.19;94.33;99978.13;2115371;28;24493;-62
2021/11/29 01:26:04;;;;;;;4.38;0.50;;;;;;;2.19;94.39;99979.88;2115221;28;30355;-64
2021/11/29 01:27:11;;;;;;;4.97;0.43;;;;;;;2.19;94.25;99980.78;2114998;28;27808;-63
2021/11/29 01:28:17;;;;;;;3.08;0.20;;;;;;;2.19;94.94;99980.78;2115398;28;21726;-63
2021/11/29 01:29:19;;;;;;;5.25;0.68;;;;;;;2.19;94.38;99980.78;2113354;27;22296;-63
2021/11/29 01:30:23;;;;;;;3.05;0.30;;;;;;;2.20;94.79;99985.16;2114261;28;30038;-63
2021/11/29 01:31:24;;;;;;;3.28;0.32;;;;;;;2.20;94.21;99982.50;2115029;28;25821;-63
2021/11/29 01:32:26;;;;;;;3.83;0.50;;;;;;;2.22;94.70;99983.38;2115062;28;30983;-63
2021/11/29 01:33:28;;;;;;;3.78;0.32;;;;;;;2.24;94.62;99986.91;2115207;28;31947;-64
2021/11/29 01:34:30;;;;;;;2.83;0.40;;;;;;;2.22;94.72;99988.66;2115657;28;20178;-63
2021/11/29 01:35:33;;;;;;;2.45;0.38;;;;;;;2.24;94.23;99984.28;2106299;28;27443;-63
2021/11/29 02:22:04;;;;;;;1.85;0.60;;;;;;;2.19;94.42;100015.09;2105511;28;20076;-62
2021/11/29 02:23:06;;;;;;;2.78;0.80;;;;;;;2.18;93.94;100015.97;2106477;28;20663;-63
2021/11/29 02:24:08;;;;;;;1.00;0.40;;;;;;;2.18;94.42;100015.97;2106247;28;28964;-62
2021/11/29 02:25:15;;;;;;;8.90;0.70;;;;;;;2.17;93.96;100016.88;2106371;28;25525;-63
2021/11/29 02:26:27;;;;;;;2.33;0.77;;;;;;;2.17;94.36;100018.63;2106793;28;20048;-63
2021/11/29 02:27:29;;;;;;;6.50;0.77;;;;;;;2.16;94.71;100017.75;2106386;28;21033;-63
2021/11/29 02:28:33;;;;;;;1.73;0.43;;;;;;;2.17;94.56;100024.78;2106136;28;26605;-63
2021/11/29 02:29:40;;;;;;;6.15;0.80;;;;;;;2.16;94.27;100023.03;2106068;28;20037;-63
2021/11/29 02:30:43;;;;;;;1.60;0.50;;;;;;;2.18;94.29;100028.31;2106441;28;21949;-63
2021/11/29 02:31:48;;;;;;;2.95;0.47;;;;;;;2.18;94.33;100028.31;2106561;28;21565;-63
2021/11/29 02:32:54;;;;;;;1.77;0.50;;;;;;;2.17;95.02;100030.06;2105950;28;29592;-63
2021/11/29 02:33:57;;;;;;;1.50;0.60;;;;;;;2.18;94.50;100031.81;2106254;28;20097;-63
2021/11/29 02:35:02;;;;;;;2.35;0.95;;;;;;;2.18;94.58;100037.09;2106902;28;20032;-63
2021/11/29 02:36:04;;;;;;;3.33;0.90;;;;;;;2.18;94.45;100036.22;2105867;28;25506;-63
2021/11/29 02:37:07;;;;;;;4.13;0.70;;;;;;;2.19;94.94;100033.59;2096956;28;31987;-62
2021/11/29 02:38:10;;;;;;;2.33;0.70;;;;;;;2.18;94.36;100025.66;2096573;28;26172;-63
2021/11/29 02:39:17;;;;;;;2.50;0.60;;;;;;;2.19;94.38;100028.31;2106307;28;24062;-63
2021/11/29 02:40:19;;;;;;;2.63;0.60;;;;;;;2.19;94.52;100033.59;2114402;28;27040;-63
2021/11/29 02:41:21;;;;;;;2.83;0.70;;;;;;;2.20;94.73;100031.81;2114481;28;23738;-61
2021/11/29 02:42:23;;;;;;;7.40;0.80;;;;;;;2.21;94.90;100029.19;2105977;28;20155;-63
2021/11/29 02:43:25;;;;;;;2.38;0.52;;;;;;;2.21;94.66;100031.81;2105156;28;23966;-63
2021/11/29 02:44:27;;;;;;;2.03;0.60;;;;;;;2.22;94.99;100038.84;2114674;28;20155;-65
2021/11/29 02:45:29;;;;;;;2.88;0.77;;;;;;;2.22;94.56;100038.84;2114896;28;22215;-63
2021/11/29 02:46:31;;;;;;;4.63;0.90;;;;;;;2.23;94.64;100039.75;2114177;28;26881;-65
2021/11/29 02:47:33;;;;;;;3.97;1.00;;;;;;;2.23;94.67;100045.88;2114683;28;26292;-64
2021/11/29 02:48:47;;;;;;;3.50;0.70;;;;;;;2.24;94.67;100039.75;2114383;28;26790;-64
2021/11/29 02:49:49;;;;;;;2.25;0.52;;;;;;;2.25;94.96;100044.13;2105655;28;20147;-62
2021/11/29 02:50:51;;;;;;;2.50;0.50;;;;;;;2.26;94.92;100044.97;2106884;28;22395;-64
2021/11/29 02:52:04;;;;;;;2.47;0.70;;;;;;;2.26;94.90;100044.97;2114508;28;29951;-62
2021/11/29 02:53:11;;;;;;;2.30;0.80;;;;;;;2.26;95.05;100040.59;2106068;28;20217;-64
2021/11/29 02:54:24;;;;;;;2.65;0.50;;;;;;;2.27;94.86;100042.34;2107835;28;23348;-61
2021/11/29 02:55:25;;;;;;;1.80;0.50;;;;;;;2.28;94.54;100044.13;2114326;28;21042;-62
2021/11/29 02:56:28;;;;;;;4.95;0.93;;;;;;;2.28;95.18;100049.41;2114695;28;20040;-62
2021/11/29 02:57:30;;;;;;;3.10;0.68;;;;;;;2.31;94.68;100050.25;2114928;28;32296;-63
2021/11/29 02:58:32;;;;;;;1.02;0.50;;;;;;;2.31;95.23;100045.84;2114648;28;24559;-63
2021/11/29 02:59:40;;;;;;;5.35;0.82;;;;;;;2.32;94.88;100052.03;2114197;28;27359;-64
2021/11/29 03:00:42;;;;;;;3.63;0.90;;;;;;;2.33;94.81;100048.50;2105342;28;24688;-63
2021/11/29 03:01:50;;;;;;;3.72;0.75;;;;;;;2.33;94.55;100045.84;2097280;28;26921;-65
2021/11/29 03:03:09;;;;;;;3.15;0.75;;;;;;;2.33;94.94;100053.78;2105767;28;20901;-62
2021/11/29 03:04:11;;;;;;;6.18;1.25;;;;;;;2.34;94.59;100052.91;2108178;28;21012;-65
2021/11/29 03:05:13;;;;;;;5.70;1.27;;;;;;;2.34;94.56;100047.63;2114646;28;27959;-64
2021/11/29 03:06:16;;;;;;;2.03;0.98;;;;;;;2.33;94.91;100054.66;2114505;28;21895;-62
2021/11/29 03:07:18;;;;;;;6.53;1.23;;;;;;;2.34;94.73;100047.63;2115045;28;20956;-64
2021/11/29 03:08:20;;;;;;;4.45;1.27;;;;;;;2.34;94.73;100052.91;2114740;28;23864;-62
2021/11/29 03:09:22;;;;;;;4.60;1.27;;;;;;;2.34;94.51;100043.22;2115789;27;26726;-64
2021/11/29 03:10:26;;;;;;;3.97;1.55;;;;;;;2.32;94.12;100050.25;2123394;27;20108;-62
2021/11/29 03:11:28;;;;;;;3.63;1.77;;;;;;;2.31;94.59;100048.50;2123117;27;22470;-64
2021/11/29 03:12:32;;;;;;;5.05;1.70;;;;;;;2.31;94.25;100052.91;2122902;27;31658;-64
2021/11/29 03:13:35;;;;;;;3.88;1.70;;;;;;;2.29;94.40;100043.22;2123560;27;20032;-64
2021/11/29 03:14:37;;;;;;;6.07;1.92;;;;;;;2.28;94.44;100045.88;2113560;28;20396;-64
2021/11/29 03:15:39;;;;;;;6.18;2.38;;;;;;;2.28;94.09;100046.75;2114179;27;30105;-64
2021/11/29 03:16:41;;;;;;;3.55;1.80;;;;;;;2.29;93.83;100053.78;2122323;27;27335;-64
2021/11/29 03:17:44;;;;;;;1.48;1.30;;;;;;;2.27;93.67;100046.75;2123239;27;20032;-63
2021/11/29 03:18:47;;;;;;;2.55;2.20;;;;;;;2.26;93.65;100055.56;2122877;27;25842;-64
2021/11/29 03:19:48;;;;;;;6.32;2.72;;;;;;;2.24;94.15;100058.22;2123462;27;25203;-62
2021/11/29 03:20:52;;;;;;;5.80;2.70;;;;;;;2.24;93.81;100057.31;2121803;27;32281;-65
2021/11/29 03:21:54;;;;;;;4.55;2.40;;;;;;;2.23;94.01;100067.00;2122737;27;30359;-64
2021/11/29 03:22:56;;;;;;;3.22;2.33;;;;;;;2.23;93.87;100071.44;2123501;27;20232;-64
2021/11/29 03:24:04;;;;;;;4.40;2.78;;;;;;;2.22;94.21;100059.97;2122953;27;28502;-64
2021/11/29 03:25:10;;;;;;;4.28;2.63;;;;;;;2.23;93.85;100067.00;2122964;27;23999;-64
2021/11/29 03:26:18;;;;;;;4.43;2.70;;;;;;;2.22;94.34;100065.25;2122456;27;31603;-64
2021/11/29 03:27:20;;;;;;;6.47;3.08;;;;;;;2.20;94.34;100071.44;2122880;27;23456;-65
2021/11/29 03:28:22;;;;;;;4.57;3.00;;;;;;;2.18;94.43;100074.06;2122909;27;20112;-62
2021/11/29 03:29:27;;;;;;;8.05;3.47;;;;;;;2.18;93.76;100076.72;2123114;27;29180;-65
2021/11/29 03:30:29;;;;;;;6.15;3.65;;;;;;;2.19;93.92;100080.22;2123055;27;20128;-65
2021/11/29 03:31:34;;;;;;;4.65;3.90;;;;;;;2.17;94.20;100072.31;2123143;27;20039;-62
2021/11/29 03:32:38;;;;;;;7.70;4.22;;;;;;;2.17;93.88;100071.44;2113256;28;24979;-64
2021/11/29 03:33:42;;;;;;;6.07;3.88;;;;;;;2.18;94.15;100078.47;2114341;27;20072;-62
2021/11/29 03:34:43;;;;;;;7.07;4.05;;;;;;;2.18;94.10;100074.06;2122397;27;27745;-64
2021/11/29 03:35:45;;;;;;;8.98;5.35;;;;;;;2.17;93.75;100072.31;2122836;27;20032;-62
2021/11/29 03:36:50;;;;;;;7.88;4.72;;;;;;;2.15;93.59;100074.06;2123326;27;20159;-64
2021/11/29 03:37:51;;;;;;;9.77;5.85;;;;;;;2.12;93.94;100074.09;2113200;28;21663;-62
2021/11/29 03:38:55;;;;;;;9.52;5.45;;;;;;;2.09;94.19;100079.38;2104958;28;21722;-64
2021/11/29 03:40:00;;;;;;;7.88;5.45;;;;;;;2.10;94.17;100074.09;2114631;27;20150;-62
2021/11/29 03:41:04;;;;;;;8.45;5.38;;;;;;;2.08;93.89;100077.59;2123407;27;25886;-64
2021/11/29 03:42:07;;;;;;;7.18;5.53;;;;;;;2.10;94.17;100079.38;2122195;27;31402;-62
2021/11/29 03:43:08;;;;;;;8.20;5.70;;;;;;;2.09;93.88;100074.09;2123167;27;20038;-64
2021/11/29 03:44:12;;;;;;;9.38;6.07;;;;;;;2.05;94.05;100081.16;2122730;27;28466;-62
2021/11/29 03:45:14;;;;;;;9.85;6.90;;;;;;;2.05;93.38;100080.28;2122497;27;34283;-64
2021/11/29 03:46:16;;;;;;;10.80;6.40;;;;;;;2.03;93.49;100087.31;2122880;27;26196;-62
2021/11/29 03:47:21;;;;;;;11.23;6.60;;;;;;;2.00;93.82;100085.56;2123297;27;20047;-65
2021/11/29 03:48:26;;;;;;;11.27;7.63;;;;;;;1.98;93.70;100087.31;2123284;27;20154;-62
2021/11/29 03:49:32;;;;;;;11.80;7.78;;;;;;;1.94;93.81;100088.22;2123056;27;21813;-64
2021/11/29 03:50:33;;;;;;;11.07;7.72;;;;;;;1.94;94.29;100090.84;2122434;27;20116;-64
2021/11/29 03:51:36;;;;;;;14.25;9.23;;;;;;;1.94;93.63;100085.56;2123086;27;20849;-64
2021/11/29 03:52:38;;;;;;;14.80;9.63;;;;;;;1.89;93.19;100101.41;2122811;27;27485;-64
2021/11/29 03:53:40;;;;;;;13.82;9.07;;;;;;;1.91;93.76;100097.00;2123214;27;20158;-62
2021/11/29 03:54:42;;;;;;;15.95;10.27;;;;;;;1.88;93.97;100099.66;2122440;27;31933;-65
2021/11/29 03:55:46;;;;;;;20.40;11.93;;;;;;;1.86;93.19;100100.53;2122676;27;25199;-63
2021/11/29 03:56:48;;;;;;;20.23;11.80;;;;;;;1.85;93.82;100104.94;2122977;27;22610;-64
2021/11/29 03:57:52;;;;;;;18.52;12.52;;;;;;;1.82;94.12;100099.66;2122186;27;26688;-62
2021/11/29 03:58:54;;;;;;;20.30;12.02;;;;;;;1.82;93.87;100101.44;2122992;27;22556;-64
2021/11/29 03:59:56;;;;;;;23.55;13.05;;;;;;;1.77;93.68;100117.25;2113767;28;20079;-62
2021/11/29 04:00:58;;;;;;;21.85;13.65;;;;;;;1.75;93.72;100108.47;2105584;28;24534;-64
2021/11/29 04:02:00;;;;;;;22.20;13.07;;;;;;;1.75;93.51;100113.72;2114169;27;20044;-62
2021/11/29 04:03:03;;;;;;;25.30;13.70;;;;;;;1.76;94.24;100118.16;2122828;27;20051;-62
2021/11/29 04:04:05;;;;;;;22.90;14.07;;;;;;;1.75;93.71;100112.88;2122857;27;20108;-64
2021/11/29 04:05:08;;;;;;;24.30;14.98;;;;;;;1.75;93.61;100116.38;2123209;27;20188;-62
2021/11/29 04:06:10;;;;;;;31.27;15.13;;;;;;;1.73;93.57;100120.78;2122605;27;25112;-64
2021/11/29 04:07:12;;;;;;;25.38;14.38;;;;;;;1.74;94.38;100119.88;2113457;28;30195;-62
2021/11/29 04:08:14;;;;;;;26.17;15.05;;;;;;;1.73;94.24;100123.41;2113572;27;28545;-64
2021/11/29 04:09:15;;;;;;;34.53;17.27;;;;;;;1.72;93.63;100132.19;2122011;27;25185;-62
2021/11/29 04:10:17;;;;;;;31.65;17.38;;;;;;;1.72;94.22;100129.56;2122753;27;20251;-62
2021/11/29 04:11:20;;;;;;;30.88;17.40;;;;;;;1.70;93.51;100133.97;2122756;27;24162;-63
2021/11/29 04:12:24;;;;;;;30.80;16.85;;;;;;;1.69;93.79;100137.50;2122570;27;23553;-63
2021/11/29 04:13:26;;;;;;;29.38;16.30;;;;;;;1.64;93.48;100134.84;2122380;27;24428;-63
2021/11/29 04:14:28;;;;;;;31.58;17.10;;;;;;;1.62;93.34;100141.88;2113162;28;26315;-63
2021/11/29 04:15:30;;;;;;;31.42;16.75;;;;;;;1.61;93.40;100133.97;2113427;27;28554;-63
2021/11/29 04:16:31;;;;;;;32.60;17.27;;;;;;;1.62;93.97;100138.38;2122237;27;23600;-63
2021/11/29 04:17:34;;;;;;;32.58;18.27;;;;;;;1.59;94.37;100146.28;2122526;27;30024;-63
2021/11/29 04:18:36;;;;;;;34.03;19.17;;;;;;;1.59;94.37;100135.72;2122852;27;20147;-63
2021/11/29 04:19:42;;;;;;;33.83;17.90;;;;;;;1.57;94.14;100137.50;2122645;27;27838;-64
2021/11/29 04:20:44;;;;;;;33.05;19.23;;;;;;;1.56;94.23;100135.72;2122479;27;22007;-63
2021/11/29 04:21:47;;;;;;;35.10;17.92;;;;;;;1.56;93.94;100139.22;2122556;27;24891;-65
2021/11/29 04:22:49;;;;;;;30.80;17.85;;;;;;;1.57;93.97;100142.75;2122752;27;24961;-63
2021/11/29 04:23:51;;;;;;;33.80;18.08;;;;;;;1.54;93.77;100135.72;2113871;28;20029;-63
2021/11/29 04:24:57;;;;;;;36.78;17.65;;;;;;;1.56;94.08;100141.00;2105506;28;21176;-63
2021/11/29 04:26:01;;;;;;;35.75;19.25;;;;;;;1.55;94.52;100144.53;2114072;27;23873;-63
2021/11/29 04:27:06;;;;;;;32.28;16.38;;;;;;;1.53;94.34;100148.03;2113872;28;25036;-63
2021/11/29 04:28:08;;;;;;;37.47;19.02;;;;;;;1.53;94.54;100148.03;2105828;28;20073;-63
2021/11/29 04:29:18;;;;;;;32.13;16.27;;;;;;;1.52;94.19;100150.66;2114377;27;20068;-63
2021/11/29 04:30:25;;;;;;;30.45;16.00;;;;;;;1.53;94.16;100150.66;2122786;27;20981;-63
2021/11/29 04:31:27;;;;;;;32.40;17.17;;;;;;;1.52;94.28;100148.91;2112895;28;34336;-64
2021/11/29 04:32:29;;;;;;;34.15;17.25;;;;;;;1.50;94.37;100148.03;2114708;27;20106;-63
2021/11/29 04:33:32;;;;;;;32.53;17.63;;;;;;;1.50;94.62;100147.16;2122743;27;22615;-63
2021/11/29 04:34:35;;;;;;;35.45;19.23;;;;;;;1.50;94.18;100152.41;2122502;27;25723;-62
2021/11/29 04:35:37;;;;;;;32.53;17.35;;;;;;;1.48;94.22;100154.19;2113789;28;20097;-63
2021/11/29 04:36:39;;;;;;;33.08;17.25;;;;;;;1.49;94.07;100156.81;2113798;27;28040;-64
2021/11/29 04:37:41;;;;;;;36.00;18.55;;;;;;;1.49;94.43;100153.28;2122506;27;26643;-64
2021/11/29 04:38:43;;;;;;;35.95;17.65;;;;;;;1.49;94.20;100155.91;2122929;27;20039;-64
2021/11/29 04:39:47;;;;;;;37.17;19.65;;;;;;;1.46;94.11;100162.09;2122266;27;24852;-63
2021/11/29 04:40:49;;;;;;;33.28;18.25;;;;;;;1.45;93.67;100162.94;2122434;27;25408;-63
2021/11/29 04:41:53;;;;;;;32.97;17.17;;;;;;;1.44;94.12;100168.25;2123017;27;20044;-63
2021/11/29 04:42:55;;;;;;;36.05;19.27;;;;;;;1.42;93.64;100164.69;2121572;27;28359;-63
2021/11/29 04:43:56;;;;;;;33.15;18.30;;;;;;;1.42;93.71;100169.97;2121849;27;23729;-63
2021/11/29 04:44:58;;;;;;;36.25;19.05;;;;;;;1.39;94.15;100168.22;2122528;27;28955;-63
2021/11/29 04:46:00;;;;;;;39.30;18.75;;;;;;;1.38;94.52;100174.38;2122464;27;20035;-64
2021/11/29 04:47:03;;;;;;;35.22;17.27;;;;;;;1.37;94.14;100172.63;2122630;27;27729;-63
2021/11/29 04:48:05;;;;;;;32.53;16.50;;;;;;;1.36;94.25;100170.84;2113322;28;29081;-64
2021/11/29 04:49:08;;;;;;;31.75;16.45;;;;;;;1.35;94.15;100174.38;2113472;27;23413;-64
2021/11/29 04:50:11;;;;;;;33.78;17.27;;;;;;;1.34;94.10;100169.97;2122818;27;20172;-64
2021/11/29 04:51:13;;;;;;;35.47;18.63;;;;;;;1.31;94.34;100170.84;2122798;27;20120;-64
2021/11/29 04:52:16;;;;;;;40.05;19.30;;;;;;;1.30;93.86;100176.13;2122697;27;20120;-63
2021/11/29 04:53:18;;;;;;;34.45;17.00;;;;;;;1.31;94.10;100177.88;2122625;27;25813;-63
2021/11/29 04:54:22;;;;;;;38.63;17.60;;;;;;;1.31;93.79;100180.50;2122160;27;25533;-63
2021/11/29 04:55:27;;;;;;;38.58;18.50;;;;;;;1.30;94.09;100184.03;2122756;27;25745;-63
2021/11/29 04:56:30;;;;;;;40.05;19.50;;;;;;;1.28;93.79;100172.59;2122546;27;22740;-63
2021/11/29 04:57:32;;;;;;;38.55;18.08;;;;;;;1.27;93.63;100179.63;2122477;27;20035;-63
2021/11/29 04:58:35;;;;;;;42.25;20.58;;;;;;;1.26;93.70;100177.00;2121903;27;33389;-65
2021/11/29 04:59:37;;;;;;;44.38;20.65;;;;;;;1.23;92.85;100180.50;2122260;27;21334;-62
2021/11/29 05:00:38;;;;;;;40.45;20.05;;;;;;;1.23;93.48;100184.91;2123444;27;22876;-62
2021/11/29 05:01:41;;;;;;;38.13;17.85;;;;;;;1.25;93.39;100188.41;2122277;27;27894;-62
2021/11/29 05:02:43;;;;;;;41.03;19.83;;;;;;;1.25;93.80;100191.06;2122380;27;24309;-62
2021/11/29 05:03:45;;;;;;;41.85;21.20;;;;;;;1.25;93.41;100193.69;2121886;27;28866;-65
2021/11/29 05:04:47;;;;;;;35.42;17.00;;;;;;;1.26;93.41;100198.09;2122091;27;23112;-62
2021/11/29 05:05:49;;;;;;;44.67;20.17;;;;;;;1.24;94.02;100199.81;2122671;27;20918;-64
2021/11/29 05:07:04;;;;;;;39.05;19.52;;;;;;;1.23;93.39;100203.34;2122423;27;28006;-64
2021/11/29 05:08:05;;;;;;;42.40;20.65;;;;;;;1.24;93.53;100202.47;2121972;27;31043;-65
2021/11/29 05:09:11;;;;;;;41.10;18.27;;;;;;;1.24;93.90;100207.72;2122380;27;24946;-65
2021/11/29 05:10:13;;;;;;;44.63;21.02;;;;;;;1.22;93.94;100207.75;2121816;27;34550;-64
2021/11/29 05:21:33;;;;;;;42.17;18.60;;;;;;;1.24;94.22;100219.19;2121089;27;20078;-64
2021/11/29 05:22:35;;;;;;;46.70;19.77;;;;;;;1.23;94.16;100212.13;2112932;28;24273;-64
2021/11/29 05:23:37;;;;;;;46.55;21.48;;;;;;;1.23;93.80;100222.69;2113619;27;28259;-64
2021/11/29 05:24:39;;;;;;;45.72;21.02;;;;;;;1.25;94.27;100222.69;2122705;27;20248;-64
2021/11/29 05:25:41;;;;;;;49.20;21.92;;;;;;;1.24;94.33;100223.56;2122170;27;26006;-64
2021/11/29 05:26:43;;;;;;;46.92;20.23;;;;;;;1.25;93.90;100226.19;2121981;27;34721;-65
2021/11/29 05:27:46;;;;;;;47.63;21.75;;;;;;;1.24;94.13;100227.09;2122646;27;20996;-64
2021/11/29 05:28:53;;;;;;;50.13;22.77;;;;;;;1.26;94.34;100227.09;2121804;27;34650;-64
2021/11/29 05:29:57;;;;;;;48.95;22.55;;;;;;;1.26;93.75;100232.38;2122479;27;20077;-64
2021/11/29 05:31:00;;;;;;;50.47;21.58;;;;;;;1.25;93.70;100236.75;2122633;27;21008;-63
2021/11/29 05:32:03;;;;;;;42.20;18.77;;;;;;;1.26;93.69;100238.53;2122183;27;31698;-65
2021/11/29 05:33:05;;;;;;;46.17;22.20;;;;;;;1.25;93.63;100236.75;2122223;27;25232;-63
2021/11/29 05:34:08;;;;;;;45.05;21.45;;;;;;;1.25;93.02;100233.25;2122166;27;26291;-62
2021/11/29 05:35:09;;;;;;;39.17;19.13;;;;;;;1.26;93.39;100232.38;2122050;27;31247;-65
2021/11/29 05:36:12;;;;;;;43.70;21.13;;;;;;;1.27;93.69;100234.13;2122563;27;20034;-64
2021/11/29 05:37:16;;;;;;;43.38;20.05;;;;;;;1.26;93.36;100232.38;2122351;27;26257;-64
2021/11/29 05:38:18;;;;;;;41.95;18.90;;;;;;;1.25;93.19;100242.03;2121821;27;29389;-64
2021/11/29 05:39:19;;;;;;;35.70;16.88;;;;;;;1.25;92.96;100236.75;2122008;27;32130;-64
2021/11/29 05:40:21;;;;;;;41.28;20.00;;;;;;;1.26;92.68;100242.94;2122053;27;25252;-63
2021/11/29 05:41:23;;;;;;;37.38;17.63;;;;;;;1.25;92.64;100238.50;2122792;27;21033;-65
2021/11/29 05:42:25;;;;;;;40.63;19.35;;;;;;;1.25;92.63;100243.78;2122161;27;26619;-62
2021/11/29 05:43:28;;;;;;;42.08;19.67;;;;;;;1.29;93.46;100242.91;2121745;27;25220;-64
2021/11/29 05:44:30;;;;;;;44.03;20.80;;;;;;;1.28;93.26;100249.97;2122440;27;20918;-64
2021/11/29 05:45:32;;;;;;;42.10;19.65;;;;;;;1.27;92.95;100256.09;2121330;27;27419;-64
2021/11/29 05:46:36;;;;;;;43.20;20.23;;;;;;;1.27;92.44;100256.09;2121936;27;30217;-64
2021/11/29 05:47:39;;;;;;;38.50;18.45;;;;;;;1.27;92.38;100255.22;2122342;27;25195;-64
2021/11/29 05:48:42;;;;;;;44.78;21.08;;;;;;;1.27;92.68;100255.22;2122026;27;24159;-64
2021/11/29 05:49:45;;;;;;;44.45;20.45;;;;;;;1.27;92.97;100260.50;2122564;27;20261;-64
2021/11/29 05:50:47;;;;;;;46.30;20.85;;;;;;;1.30;93.05;100263.16;2112868;28;33661;-62